sensor_id;sensor_type;location;lat;lon;timestamp;pressure;altitude;pressure_sealevel;temperature;humidity
78584;BME280;67880;46.082;18.234;2023-06-26T00:00:06;99617.78;;;19.61;75.54
78584;BME280;67880;46.082;18.234;2023-06-26T00:00:39;99623.63;;;19.65;74.96
78584;BME280;67880;46.082;18.234;2023-06-26T00:01:11;99619.63;;;19.67;75.12
78584;BME280;67880;46.082;18.234;2023-06-26T00:01:43;99620.69;;;19.66;74.70
78584;BME280;67880;46.082;18.234;2023-06-26T00:02:16;99612.09;;;19.63;75.23
78584;BME280;67880;46.082;18.234;2023-06-26T00:02:48;99619.44;;;19.62;75.51
78584;BME280;67880;46.082;18.234;2023-06-26T00:03:20;99616.50;;;19.64;75.34
78584;BME280;67880;46.082;18.234;2023-06-26T00:03:52;99616.50;;;19.64;74.99
78584;BME280;67880;46.082;18.234;2023-06-26T00:04:24;99618.38;;;19.63;75.22
78584;BME280;67880;46.082;18.234;2023-06-26T00:04:56;99613.63;;;19.59;75.89
78584;BME280;67880;46.082;18.234;2023-06-26T00:05:28;99616.13;;;19.54;75.63
78584;BME280;67880;46.082;18.234;2023-06-26T00:06:02;99611.91;;;19.58;75.56
78584;BME280;67880;46.082;18.234;2023-06-26T00:06:34;99619.69;;;19.54;75.99
78584;BME280;67880;46.082;18.234;2023-06-26T00:07:06;99616.50;;;19.57;75.49
78584;BME280;67880;46.082;18.234;2023-06-26T00:07:38;99616.50;;;19.57;75.47
78584;BME280;67880;46.082;18.234;2023-06-26T00:08:10;99612.94;;;19.57;75.48
78584;BME280;67880;46.082;18.234;2023-06-26T00:08:42;99609.84;;;19.53;75.53
78584;BME280;67880;46.082;18.234;2023-06-26T00:09:15;99613.19;;;19.55;75.99
78584;BME280;67880;46.082;18.234;2023-06-26T00:09:47;99618.63;;;19.55;75.40
78584;BME280;67880;46.082;18.234;2023-06-26T00:10:19;99612.13;;;19.56;75.56
78584;BME280;67880;46.082;18.234;2023-06-26T00:10:51;99620.97;;;19.52;75.78
78584;BME280;67880;46.082;18.234;2023-06-26T00:11:23;99610.69;;;19.54;75.67
78584;BME280;67880;46.082;18.234;2023-06-26T00:11:55;99614.00;;;19.56;75.80
78584;BME280;67880;46.082;18.234;2023-06-26T00:12:27;99612.34;;;19.55;75.36
78584;BME280;67880;46.082;18.234;2023-06-26T00:12:59;99611.94;;;19.51;75.78
78584;BME280;67880;46.082;18.234;2023-06-26T00:13:31;99614.22;;;19.54;75.54
78584;BME280;67880;46.082;18.234;2023-06-26T00:14:03;99611.94;;;19.51;75.34
78584;BME280;67880;46.082;18.234;2023-06-26T00:14:35;99615.72;;;19.50;75.38
78584;BME280;67880;46.082;18.234;2023-06-26T00:15:08;99613.63;;;19.52;74.91
78584;BME280;67880;46.082;18.234;2023-06-26T00:15:40;99615.28;;;19.53;75.50
78584;BME280;67880;46.082;18.234;2023-06-26T00:16:12;99614.22;;;19.54;75.65
78584;BME280;67880;46.082;18.234;2023-06-26T00:16:44;99611.09;;;19.51;75.58
78584;BME280;67880;46.082;18.234;2023-06-26T00:17:17;99608.59;;;19.49;75.47
78584;BME280;67880;46.082;18.234;2023-06-26T00:17:49;99609.06;;;19.46;75.65
78584;BME280;67880;46.082;18.234;2023-06-26T00:18:22;99611.78;;;19.46;75.35
78584;BME280;67880;46.082;18.234;2023-06-26T00:18:55;99608.63;;;19.42;75.97
78584;BME280;67880;46.082;18.234;2023-06-26T00:19:27;99605.28;;;19.47;75.59
78584;BME280;67880;46.082;18.234;2023-06-26T00:19:59;99607.78;;;19.48;75.23
78584;BME280;67880;46.082;18.234;2023-06-26T00:20:31;99607.13;;;19.53;75.30
78584;BME280;67880;46.082;18.234;2023-06-26T00:21:05;99602.94;;;19.51;75.60
78584;BME280;67880;46.082;18.234;2023-06-26T00:21:37;99611.94;;;19.51;75.48
78584;BME280;67880;46.082;18.234;2023-06-26T00:22:11;99609.88;;;19.46;75.53
78584;BME280;67880;46.082;18.234;2023-06-26T00:22:43;99599.41;;;19.43;75.49
78584;BME280;67880;46.082;18.234;2023-06-26T00:23:17;99606.75;;;19.43;75.40
78584;BME280;67880;46.082;18.234;2023-06-26T00:23:49;99607.59;;;19.43;75.31
78584;BME280;67880;46.082;18.234;2023-06-26T00:24:21;99605.31;;;19.40;75.27
78584;BME280;67880;46.082;18.234;2023-06-26T00:24:53;99600.47;;;19.42;75.58
78584;BME280;67880;46.082;18.234;2023-06-26T00:25:25;99608.00;;;19.47;75.51
78584;BME280;67880;46.082;18.234;2023-06-26T00:25:57;99608.22;;;19.45;75.64
78584;BME280;67880;46.082;18.234;2023-06-26T00:26:29;99604.25;;;19.41;75.10
78584;BME280;67880;46.082;18.234;2023-06-26T00:27:01;99609.69;;;19.41;75.60
78584;BME280;67880;46.082;18.234;2023-06-26T00:27:33;99609.94;;;19.40;75.90
78584;BME280;67880;46.082;18.234;2023-06-26T00:28:07;99604.66;;;19.38;75.33
78584;BME280;67880;46.082;18.234;2023-06-26T00:28:39;99601.34;;;19.36;75.42
78584;BME280;67880;46.082;18.234;2023-06-26T00:29:11;99599.91;;;19.34;75.68
78584;BME280;67880;46.082;18.234;2023-06-26T00:29:43;99600.75;;;19.34;76.05
78584;BME280;67880;46.082;18.234;2023-06-26T00:30:15;99603.47;;;19.34;76.07
78584;BME280;67880;46.082;18.234;2023-06-26T00:30:47;99598.25;;;19.33;76.41
78584;BME280;67880;46.082;18.234;2023-06-26T00:31:19;99602.22;;;19.30;76.14
78584;BME280;67880;46.082;18.234;2023-06-26T00:31:51;99601.16;;;19.31;76.10
78584;BME280;67880;46.082;18.234;2023-06-26T00:32:23;99602.44;;;19.29;76.24
78584;BME280;67880;46.082;18.234;2023-06-26T00:32:55;99599.94;;;19.27;76.13
78584;BME280;67880;46.082;18.234;2023-06-26T00:33:27;99597.81;;;19.29;76.29
78584;BME280;67880;46.082;18.234;2023-06-26T00:33:59;99600.13;;;19.32;76.46
78584;BME280;67880;46.082;18.234;2023-06-26T00:34:31;99600.97;;;19.33;76.18
78584;BME280;67880;46.082;18.234;2023-06-26T00:35:04;99598.41;;;19.38;75.96
78584;BME280;67880;46.082;18.234;2023-06-26T00:35:36;99596.13;;;19.35;75.38
78584;BME280;67880;46.082;18.234;2023-06-26T00:36:08;99598.25;;;19.33;75.46
78584;BME280;67880;46.082;18.234;2023-06-26T00:36:40;99596.34;;;19.33;75.95
78584;BME280;67880;46.082;18.234;2023-06-26T00:37:15;99595.28;;;19.34;75.66
78584;BME280;67880;46.082;18.234;2023-06-26T00:37:47;99598.00;;;19.34;76.01
78584;BME280;67880;46.082;18.234;2023-06-26T00:38:19;99595.28;;;19.34;76.07
78584;BME280;67880;46.082;18.234;2023-06-26T00:38:51;99592.38;;;19.29;76.18
78584;BME280;67880;46.082;18.234;2023-06-26T00:39:23;99589.88;;;19.28;75.76
78584;BME280;67880;46.082;18.234;2023-06-26T00:39:57;99591.97;;;19.32;76.27
78584;BME280;67880;46.082;18.234;2023-06-26T00:40:29;99592.78;;;19.33;76.13
78584;BME280;67880;46.082;18.234;2023-06-26T00:41:01;99590.91;;;19.33;76.09
78584;BME280;67880;46.082;18.234;2023-06-26T00:41:33;99596.13;;;19.35;75.73
78584;BME280;67880;46.082;18.234;2023-06-26T00:42:05;99591.72;;;19.34;76.19
78584;BME280;67880;46.082;18.234;2023-06-26T00:42:39;99591.50;;;19.35;76.06
78584;BME280;67880;46.082;18.234;2023-06-26T00:43:12;99590.69;;;19.35;76.40
78584;BME280;67880;46.082;18.234;2023-06-26T00:43:44;99586.53;;;19.32;76.38
78584;BME280;67880;46.082;18.234;2023-06-26T00:44:16;99588.22;;;19.27;76.51
78584;BME280;67880;46.082;18.234;2023-06-26T00:44:48;99585.50;;;19.27;76.41
78584;BME280;67880;46.082;18.234;2023-06-26T00:45:20;99588.41;;;19.25;76.59
78584;BME280;67880;46.082;18.234;2023-06-26T00:46:10;99582.78;;;19.27;75.98
78584;BME280;67880;46.082;18.234;2023-06-26T00:46:43;99593.25;;;19.23;76.78
78584;BME280;67880;46.082;18.234;2023-06-26T00:47:17;99593.25;;;19.23;76.39
78584;BME280;67880;46.082;18.234;2023-06-26T00:47:50;99587.56;;;19.25;76.20
78584;BME280;67880;46.082;18.234;2023-06-26T00:48:22;99591.78;;;19.27;75.81
78584;BME280;67880;46.082;18.234;2023-06-26T00:48:55;99594.69;;;19.32;75.68
78584;BME280;67880;46.082;18.234;2023-06-26T00:49:28;99585.28;;;19.28;75.33
78584;BME280;67880;46.082;18.234;2023-06-26T00:50:00;99584.03;;;19.24;75.49
78584;BME280;67880;46.082;18.234;2023-06-26T00:50:33;99589.28;;;19.26;75.45
78584;BME280;67880;46.082;18.234;2023-06-26T00:51:06;99588.63;;;19.24;75.51
78584;BME280;67880;46.082;18.234;2023-06-26T00:51:38;99592.19;;;19.24;75.43
78584;BME280;67880;46.082;18.234;2023-06-26T00:52:10;99584.91;;;19.18;75.79
78584;BME280;67880;46.082;18.234;2023-06-26T00:52:43;99589.06;;;19.27;75.45
78584;BME280;67880;46.082;18.234;2023-06-26T00:53:15;99588.63;;;19.24;75.47
78584;BME280;67880;46.082;18.234;2023-06-26T00:53:47;99593.69;;;19.20;75.43
78584;BME280;67880;46.082;18.234;2023-06-26T00:54:20;99587.81;;;19.23;75.15
78584;BME280;67880;46.082;18.234;2023-06-26T00:54:54;99586.38;;;19.20;75.06
78584;BME280;67880;46.082;18.234;2023-06-26T00:55:27;99590.97;;;19.20;74.79
78584;BME280;67880;46.082;18.234;2023-06-26T00:56:01;99587.00;;;19.16;75.08
78584;BME280;67880;46.082;18.234;2023-06-26T00:56:34;99589.13;;;19.14;75.82
78584;BME280;67880;46.082;18.234;2023-06-26T00:57:06;99581.78;;;19.14;75.70
78584;BME280;67880;46.082;18.234;2023-06-26T00:57:38;99575.91;;;19.17;75.45
78584;BME280;67880;46.082;18.234;2023-06-26T00:58:11;99585.13;;;19.16;75.42
78584;BME280;67880;46.082;18.234;2023-06-26T00:58:43;99585.75;;;19.12;75.38
78584;BME280;67880;46.082;18.234;2023-06-26T00:59:15;99576.97;;;19.10;75.92
78584;BME280;67880;46.082;18.234;2023-06-26T00:59:48;99580.53;;;19.10;75.30
78584;BME280;67880;46.082;18.234;2023-06-26T01:00:20;99576.75;;;19.11;75.78
78584;BME280;67880;46.082;18.234;2023-06-26T01:00:53;99582.19;;;19.11;75.74
78584;BME280;67880;46.082;18.234;2023-06-26T01:01:25;99583.47;;;19.09;75.92
78584;BME280;67880;46.082;18.234;2023-06-26T01:01:57;99581.81;;;19.08;76.11
78584;BME280;67880;46.082;18.234;2023-06-26T01:02:29;99583.47;;;19.09;76.21
78584;BME280;67880;46.082;18.234;2023-06-26T01:03:05;99581.38;;;19.11;76.40
78584;BME280;67880;46.082;18.234;2023-06-26T01:03:37;99580.53;;;19.10;75.75
78584;BME280;67880;46.082;18.234;2023-06-26T01:04:11;99585.56;;;19.13;76.24
78584;BME280;67880;46.082;18.234;2023-06-26T01:04:50;99577.59;;;19.12;76.69
78584;BME280;67880;46.082;18.234;2023-06-26T01:05:23;99582.63;;;19.15;75.90
78584;BME280;67880;46.082;18.234;2023-06-26T01:05:56;99587.44;;;19.13;76.27
78584;BME280;67880;46.082;18.234;2023-06-26T01:06:32;99581.38;;;19.11;75.79
78584;BME280;67880;46.082;18.234;2023-06-26T01:07:07;99583.44;;;19.15;75.74
78584;BME280;67880;46.082;18.234;2023-06-26T01:07:40;99591.63;;;19.15;75.81
78584;BME280;67880;46.082;18.234;2023-06-26T01:08:13;99583.88;;;19.12;75.18
78584;BME280;67880;46.082;18.234;2023-06-26T01:08:46;99584.28;;;19.16;75.21
78584;BME280;67880;46.082;18.234;2023-06-26T01:09:19;99580.31;;;19.12;75.55
78584;BME280;67880;46.082;18.234;2023-06-26T01:09:52;99586.56;;;19.19;75.28
78584;BME280;67880;46.082;18.234;2023-06-26T01:10:24;99583.84;;;19.26;75.75
78584;BME280;67880;46.082;18.234;2023-06-26T01:11:00;99578.19;;;19.20;75.45
78584;BME280;67880;46.082;18.234;2023-06-26T01:11:32;99578.81;;;19.23;74.99
78584;BME280;67880;46.082;18.234;2023-06-26T01:12:04;99578.81;;;19.23;75.28
78584;BME280;67880;46.082;18.234;2023-06-26T01:12:36;99580.09;;;19.20;75.64
78584;BME280;67880;46.082;18.234;2023-06-26T01:13:14;99571.09;;;19.19;75.89
78584;BME280;67880;46.082;18.234;2023-06-26T01:13:46;99579.25;;;19.19;76.00
78584;BME280;67880;46.082;18.234;2023-06-26T01:14:18;99587.41;;;19.19;76.20
78584;BME280;67880;46.082;18.234;2023-06-26T01:14:50;99572.13;;;19.18;76.20
78584;BME280;67880;46.082;18.234;2023-06-26T01:15:22;99581.53;;;19.23;75.87
78584;BME280;67880;46.082;18.234;2023-06-26T01:15:55;99574.81;;;19.25;76.09
78584;BME280;67880;46.082;18.234;2023-06-26T01:16:29;99581.94;;;19.26;75.71
78584;BME280;67880;46.082;18.234;2023-06-26T01:17:02;99575.84;;;19.24;75.83
78584;BME280;67880;46.082;18.234;2023-06-26T01:17:37;99579.88;;;19.21;76.21
78584;BME280;67880;46.082;18.234;2023-06-26T01:18:10;99573.38;;;19.23;76.16
78584;BME280;67880;46.082;18.234;2023-06-26T01:18:42;99579.03;;;19.21;76.30
78584;BME280;67880;46.082;18.234;2023-06-26T01:19:25;99575.06;;;19.17;76.54
78584;BME280;67880;46.082;18.234;2023-06-26T01:19:59;99576.94;;;19.16;76.39
78584;BME280;67880;46.082;18.234;2023-06-26T01:20:35;99569.84;;;19.15;76.33
78584;BME280;67880;46.082;18.234;2023-06-26T01:21:10;99575.31;;;19.09;76.63
78584;BME280;67880;46.082;18.234;2023-06-26T01:21:46;99566.13;;;19.03;76.66
78584;BME280;67880;46.082;18.234;2023-06-26T01:24:15;99571.16;;;19.00;76.41
78584;BME280;67880;46.082;18.234;2023-06-26T01:26:32;99568.09;;;18.89;76.71
78584;BME280;67880;46.082;18.234;2023-06-26T01:27:07;99573.53;;;18.89;77.45
78584;BME280;67880;46.082;18.234;2023-06-26T01:27:41;99574.75;;;18.87;77.01
78584;BME280;67880;46.082;18.234;2023-06-26T01:28:14;99576.66;;;18.86;76.67
78584;BME280;67880;46.082;18.234;2023-06-26T01:28:53;99568.09;;;18.83;77.19
78584;BME280;67880;46.082;18.234;2023-06-26T01:29:29;99577.28;;;18.88;77.06
78584;BME280;67880;46.082;18.234;2023-06-26T01:30:03;99572.69;;;18.89;76.73
78584;BME280;67880;46.082;18.234;2023-06-26T01:30:40;99563.88;;;18.87;76.82
78584;BME280;67880;46.082;18.234;2023-06-26T01:31:14;99566.81;;;18.92;77.01
78584;BME280;67880;46.082;18.234;2023-06-26T01:31:47;99563.25;;;18.91;76.50
78584;BME280;67880;46.082;18.234;2023-06-26T01:32:22;99562.84;;;18.94;77.01
78584;BME280;67880;46.082;18.234;2023-06-26T01:32:54;99572.44;;;18.97;76.85
78584;BME280;67880;46.082;18.234;2023-06-26T01:33:27;99564.09;;;18.92;77.10
78584;BME280;67880;46.082;18.234;2023-06-26T01:34:00;99562.84;;;18.94;77.01
78584;BME280;67880;46.082;18.234;2023-06-26T01:34:33;99566.81;;;18.92;76.48
78584;BME280;67880;46.082;18.234;2023-06-26T01:35:07;99564.28;;;18.97;76.81
78584;BME280;67880;46.082;18.234;2023-06-26T01:35:40;99563.44;;;18.97;76.90
78584;BME280;67880;46.082;18.234;2023-06-26T01:36:12;99561.97;;;19.01;77.15
78584;BME280;67880;46.082;18.234;2023-06-26T01:36:45;99555.28;;;18.97;77.03
78584;BME280;67880;46.082;18.234;2023-06-26T01:37:17;99565.75;;;18.93;77.10
78584;BME280;67880;46.082;18.234;2023-06-26T01:37:49;99560.34;;;18.86;77.28
78584;BME280;67880;46.082;18.234;2023-06-26T01:38:22;99556.78;;;18.86;77.62
78584;BME280;67880;46.082;18.234;2023-06-26T01:38:57;99557.41;;;18.88;77.65
78584;BME280;67880;46.082;18.234;2023-06-26T01:39:29;99558.88;;;18.90;77.15
78584;BME280;67880;46.082;18.234;2023-06-26T01:40:01;99558.44;;;18.93;77.38
78584;BME280;67880;46.082;18.234;2023-06-26T01:40:37;99560.31;;;18.93;77.48
78584;BME280;67880;46.082;18.234;2023-06-26T01:41:10;99559.09;;;18.89;77.23
78584;BME280;67880;46.082;18.234;2023-06-26T01:41:42;99560.16;;;18.88;77.04
78584;BME280;67880;46.082;18.234;2023-06-26T01:42:15;99552.63;;;18.83;77.57
78584;BME280;67880;46.082;18.234;2023-06-26T01:42:47;99557.22;;;18.83;77.29
78584;BME280;67880;46.082;18.234;2023-06-26T01:43:43;99560.16;;;18.81;77.75
78584;BME280;67880;46.082;18.234;2023-06-26T01:44:35;99561.38;;;18.85;77.44
78584;BME280;67880;46.082;18.234;2023-06-26T01:45:23;99558.25;;;18.88;77.29
78584;BME280;67880;46.082;18.234;2023-06-26T01:46:08;99560.16;;;18.81;76.75
78584;BME280;67880;46.082;18.234;2023-06-26T01:47:19;99561.00;;;18.82;77.20
78584;BME280;67880;46.082;18.234;2023-06-26T01:47:49;99552.00;;;18.81;77.10
78584;BME280;67880;46.082;18.234;2023-06-26T01:48:30;99553.66;;;18.82;77.00
78584;BME280;67880;46.082;18.234;2023-06-26T01:50:14;99555.56;;;18.82;77.31
78584;BME280;67880;46.082;18.234;2023-06-26T01:50:51;99553.66;;;18.82;76.90
78584;BME280;67880;46.082;18.234;2023-06-26T01:51:30;99554.06;;;18.86;77.04
78584;BME280;67880;46.082;18.234;2023-06-26T01:52:58;99551.75;;;18.89;76.62
78584;BME280;67880;46.082;18.234;2023-06-26T01:53:38;99551.56;;;18.84;76.89
78584;BME280;67880;46.082;18.234;2023-06-26T01:54:18;99552.63;;;18.83;76.48
78584;BME280;67880;46.082;18.234;2023-06-26T01:55:21;99553.22;;;18.85;76.76
78584;BME280;67880;46.082;18.234;2023-06-26T01:56:05;99547.38;;;18.88;76.83
78584;BME280;67880;46.082;18.234;2023-06-26T01:56:40;99555.53;;;18.88;76.32
78584;BME280;67880;46.082;18.234;2023-06-26T01:57:12;99547.16;;;18.90;76.44
78584;BME280;67880;46.082;18.234;2023-06-26T01:57:47;99550.28;;;18.87;76.61
78584;BME280;67880;46.082;18.234;2023-06-26T01:58:23;99543.81;;;18.88;76.39
78584;BME280;67880;46.082;18.234;2023-06-26T01:58:56;99552.81;;;18.88;76.74
78584;BME280;67880;46.082;18.234;2023-06-26T01:59:32;99543.59;;;18.89;76.25
78584;BME280;67880;46.082;18.234;2023-06-26T02:00:04;99552.16;;;18.86;76.47
78584;BME280;67880;46.082;18.234;2023-06-26T02:00:39;99552.81;;;18.88;76.39
78584;BME280;67880;46.082;18.234;2023-06-26T02:01:12;99545.72;;;18.87;76.66
78584;BME280;67880;46.082;18.234;2023-06-26T02:01:44;99552.16;;;18.86;76.42
78584;BME280;67880;46.082;18.234;2023-06-26T02:02:16;99543.63;;;18.83;76.86
78584;BME280;67880;46.082;18.234;2023-06-26T02:02:48;99553.03;;;18.80;76.98
78584;BME280;67880;46.082;18.234;2023-06-26T02:03:20;99545.75;;;18.81;77.20
78584;BME280;67880;46.082;18.234;2023-06-26T02:03:52;99553.03;;;18.80;77.10
78584;BME280;67880;46.082;18.234;2023-06-26T02:04:24;99549.28;;;18.81;76.35
78584;BME280;67880;46.082;18.234;2023-06-26T02:04:56;99545.09;;;18.79;76.83
78584;BME280;67880;46.082;18.234;2023-06-26T02:05:28;99549.69;;;18.78;76.30
78584;BME280;67880;46.082;18.234;2023-06-26T02:06:02;99549.28;;;18.81;76.38
78584;BME280;67880;46.082;18.234;2023-06-26T02:06:34;99549.69;;;18.78;77.17
78584;BME280;67880;46.082;18.234;2023-06-26T02:07:06;99551.38;;;18.79;77.03
78584;BME280;67880;46.082;18.234;2023-06-26T02:07:41;99545.53;;;18.76;77.08
78584;BME280;67880;46.082;18.234;2023-06-26T02:08:14;99541.53;;;18.78;76.74
78584;BME280;67880;46.082;18.234;2023-06-26T02:08:46;99546.34;;;18.83;76.94
78584;BME280;67880;46.082;18.234;2023-06-26T02:09:18;99548.84;;;18.84;76.45
78584;BME280;67880;46.082;18.234;2023-06-26T02:09:51;99545.50;;;18.82;77.07
78584;BME280;67880;46.082;18.234;2023-06-26T02:10:23;99543.22;;;18.79;77.07
78584;BME280;67880;46.082;18.234;2023-06-26T02:10:55;99543.66;;;18.76;77.15
78584;BME280;67880;46.082;18.234;2023-06-26T02:11:27;99549.69;;;18.78;77.19
78584;BME280;67880;46.082;18.234;2023-06-26T02:11:59;99537.56;;;18.81;76.99
78584;BME280;67880;46.082;18.234;2023-06-26T02:12:31;99543.19;;;18.86;76.45
78584;BME280;67880;46.082;18.234;2023-06-26T02:13:03;99541.94;;;18.88;76.84
78584;BME280;67880;46.082;18.234;2023-06-26T02:13:35;99547.19;;;18.83;76.58
78584;BME280;67880;46.082;18.234;2023-06-26T02:14:07;99550.72;;;18.84;76.46
78584;BME280;67880;46.082;18.234;2023-06-26T02:14:40;99541.53;;;18.78;77.28
78584;BME280;67880;46.082;18.234;2023-06-26T02:15:12;99542.00;;;18.75;76.90
78584;BME280;67880;46.082;18.234;2023-06-26T02:15:44;99543.66;;;18.76;76.98
78584;BME280;67880;46.082;18.234;2023-06-26T02:16:16;99545.09;;;18.79;76.62
78584;BME280;67880;46.082;18.234;2023-06-26T02:16:49;99544.88;;;18.80;76.69
78584;BME280;67880;46.082;18.234;2023-06-26T02:17:20;99549.06;;;18.83;76.96
78584;BME280;67880;46.082;18.234;2023-06-26T02:17:52;99550.97;;;18.76;76.30
78584;BME280;67880;46.082;18.234;2023-06-26T02:18:25;99546.63;;;18.68;77.22
78584;BME280;67880;46.082;18.234;2023-06-26T02:18:57;99548.66;;;18.66;77.36
78584;BME280;67880;46.082;18.234;2023-06-26T02:19:29;99545.34;;;18.64;77.78
78584;BME280;67880;46.082;18.234;2023-06-26T02:20:01;99543.03;;;18.67;77.31
78584;BME280;67880;46.082;18.234;2023-06-26T02:20:33;99551.00;;;18.69;77.36
78584;BME280;67880;46.082;18.234;2023-06-26T02:21:06;99547.22;;;18.63;77.43
78584;BME280;67880;46.082;18.234;2023-06-26T02:21:38;99551.00;;;18.62;78.20
78584;BME280;67880;46.082;18.234;2023-06-26T02:22:10;99547.84;;;18.59;77.62
78584;BME280;67880;46.082;18.234;2023-06-26T02:22:42;99548.91;;;18.58;78.44
78584;BME280;67880;46.082;18.234;2023-06-26T02:23:14;99544.50;;;18.63;78.28
78584;BME280;67880;46.082;18.234;2023-06-26T02:23:46;99552.66;;;18.63;78.07
78584;BME280;67880;46.082;18.234;2023-06-26T02:24:18;99551.41;;;18.59;78.34
78584;BME280;67880;46.082;18.234;2023-06-26T02:24:50;99552.25;;;18.60;78.14
78584;BME280;67880;46.082;18.234;2023-06-26T02:25:22;99554.13;;;18.59;78.02
78584;BME280;67880;46.082;18.234;2023-06-26T02:25:54;99552.69;;;18.57;78.07
78584;BME280;67880;46.082;18.234;2023-06-26T02:26:26;99554.78;;;18.55;78.34
78584;BME280;67880;46.082;18.234;2023-06-26T02:26:58;99553.94;;;18.54;77.55
78584;BME280;67880;46.082;18.234;2023-06-26T02:27:30;99547.66;;;18.54;77.87
78584;BME280;67880;46.082;18.234;2023-06-26T02:28:02;99559.59;;;18.53;77.94
78584;BME280;67880;46.082;18.234;2023-06-26T02:28:34;99551.63;;;18.58;77.70
78584;BME280;67880;46.082;18.234;2023-06-26T02:29:06;99551.19;;;18.61;76.92
78584;BME280;67880;46.082;18.234;2023-06-26T02:29:39;99554.13;;;18.59;77.09
78584;BME280;67880;46.082;18.234;2023-06-26T02:30:12;99560.00;;;18.63;76.47
78584;BME280;67880;46.082;18.234;2023-06-26T02:30:44;99555.59;;;18.62;76.77
78584;BME280;67880;46.082;18.234;2023-06-26T02:31:16;99556.63;;;18.61;76.90
78584;BME280;67880;46.082;18.234;2023-06-26T02:31:48;99559.56;;;18.59;76.67
78584;BME280;67880;46.082;18.234;2023-06-26T02:32:20;99561.22;;;18.60;77.19
78584;BME280;67880;46.082;18.234;2023-06-26T02:32:52;99565.22;;;18.58;77.06
78584;BME280;67880;46.082;18.234;2023-06-26T02:33:24;99561.25;;;18.54;77.12
78584;BME280;67880;46.082;18.234;2023-06-26T02:33:56;99562.53;;;18.51;77.28
78584;BME280;67880;46.082;18.234;2023-06-26T02:34:28;99563.56;;;18.50;77.44
78584;BME280;67880;46.082;18.234;2023-06-26T02:35:02;99560.00;;;18.56;77.44
78584;BME280;67880;46.082;18.234;2023-06-26T02:35:34;99560.41;;;18.60;76.88
78584;BME280;67880;46.082;18.234;2023-06-26T02:36:06;99557.50;;;18.61;76.67
78584;BME280;67880;46.082;18.234;2023-06-26T02:36:38;99558.94;;;18.64;76.66
78584;BME280;67880;46.082;18.234;2023-06-26T02:37:11;99564.41;;;18.57;76.80
78584;BME280;67880;46.082;18.234;2023-06-26T02:37:43;99567.53;;;18.54;76.92
78584;BME280;67880;46.082;18.234;2023-06-26T02:38:15;99569.63;;;18.52;77.20
78584;BME280;67880;46.082;18.234;2023-06-26T02:38:47;99562.94;;;18.55;77.17
78584;BME280;67880;46.082;18.234;2023-06-26T02:39:19;99561.66;;;18.57;77.80
78584;BME280;67880;46.082;18.234;2023-06-26T02:39:51;99563.34;;;18.58;77.29
78584;BME280;67880;46.082;18.234;2023-06-26T02:40:23;99565.66;;;18.61;77.14
78584;BME280;67880;46.082;18.234;2023-06-26T02:40:55;99563.34;;;18.58;77.29
78584;BME280;67880;46.082;18.234;2023-06-26T02:41:26;99561.47;;;18.52;77.11
78584;BME280;67880;46.082;18.234;2023-06-26T02:41:58;99564.63;;;18.49;77.95
78584;BME280;67880;46.082;18.234;2023-06-26T02:42:31;99559.38;;;18.48;78.12
78584;BME280;67880;46.082;18.234;2023-06-26T02:43:03;99561.47;;;18.52;77.61
78584;BME280;67880;46.082;18.234;2023-06-26T02:43:35;99560.84;;;18.50;77.62
78584;BME280;67880;46.082;18.234;2023-06-26T02:44:07;99565.84;;;18.53;77.41
78584;BME280;67880;46.082;18.234;2023-06-26T02:44:39;99569.00;;;18.50;77.59
78584;BME280;67880;46.082;18.234;2023-06-26T02:45:11;99564.63;;;18.49;77.78
78584;BME280;67880;46.082;18.234;2023-06-26T02:45:43;99567.75;;;18.46;77.71
78584;BME280;67880;46.082;18.234;2023-06-26T02:46:15;99571.31;;;18.47;77.83
78584;BME280;67880;46.082;18.234;2023-06-26T02:46:47;99566.31;;;18.44;77.38
78584;BME280;67880;46.082;18.234;2023-06-26T02:47:19;99564.84;;;18.41;77.99
78584;BME280;67880;46.082;18.234;2023-06-26T02:47:51;99573.66;;;18.36;78.20
78584;BME280;67880;46.082;18.234;2023-06-26T02:48:23;99570.50;;;18.33;78.97
78584;BME280;67880;46.082;18.234;2023-06-26T02:48:55;99565.91;;;18.33;79.00
78584;BME280;67880;46.082;18.234;2023-06-26T02:49:28;99570.50;;;18.33;78.75
78584;BME280;67880;46.082;18.234;2023-06-26T02:50:00;99570.50;;;18.33;78.63
78584;BME280;67880;46.082;18.234;2023-06-26T02:50:32;99569.66;;;18.32;78.89
78584;BME280;67880;46.082;18.234;2023-06-26T02:51:04;99565.28;;;18.31;78.97
78584;BME280;67880;46.082;18.234;2023-06-26T02:51:36;99571.53;;;18.38;79.34
78584;BME280;67880;46.082;18.234;2023-06-26T02:52:08;99571.09;;;18.41;78.72
78584;BME280;67880;46.082;18.234;2023-06-26T02:52:40;99560.44;;;18.40;79.26
78584;BME280;67880;46.082;18.234;2023-06-26T02:53:12;99562.13;;;18.41;78.64
78584;BME280;67880;46.082;18.234;2023-06-26T02:53:44;99570.28;;;18.41;79.06
78584;BME280;67880;46.082;18.234;2023-06-26T02:54:16;99565.06;;;18.39;78.86
78584;BME280;67880;46.082;18.234;2023-06-26T02:54:48;99560.47;;;18.33;78.66
78584;BME280;67880;46.082;18.234;2023-06-26T02:55:20;99567.16;;;18.37;78.38
78584;BME280;67880;46.082;18.234;2023-06-26T02:55:54;99566.09;;;18.38;78.53
78584;BME280;67880;46.082;18.234;2023-06-26T02:56:26;99562.13;;;18.34;79.02
78584;BME280;67880;46.082;18.234;2023-06-26T02:57:01;99568.00;;;18.31;79.54
78584;BME280;67880;46.082;18.234;2023-06-26T02:57:33;99567.78;;;18.33;79.25
78584;BME280;67880;46.082;18.234;2023-06-26T02:58:05;99567.56;;;18.34;79.88
78584;BME280;67880;46.082;18.234;2023-06-26T02:58:37;99569.03;;;18.37;79.77
78584;BME280;67880;46.082;18.234;2023-06-26T02:59:09;99567.16;;;18.37;79.32
78584;BME280;67880;46.082;18.234;2023-06-26T02:59:41;99570.28;;;18.41;79.00